sensor_id;sensor_type;location;lat;lon;timestamp;P1;durP1;ratioP1;P2;durP2;ratioP2
63346;SDS011;49472;49.880;8.650;2024-01-30T00:02:21;28.37;;;25.57;;
63346;SDS011;49472;49.880;8.650;2024-01-30T00:04:46;26.57;;;24.00;;
63346;SDS011;49472;49.880;8.650;2024-01-30T00:07:11;24.53;;;22.23;;
63346;SDS011;49472;49.880;8.650;2024-01-30T00:09:38;23.10;;;20.83;;
63346;SDS011;49472;49.880;8.650;2024-01-30T00:12:04;24.67;;;22.37;;
63346;SDS011;49472;49.880;8.650;2024-01-30T00:14:29;25.40;;;22.20;;
63346;SDS011;49472;49.880;8.650;2024-01-30T00:16:54;23.70;;;20.67;;
63346;SDS011;49472;49.880;8.650;2024-01-30T00:19:19;24.13;;;21.93;;
63346;SDS011;49472;49.880;8.650;2024-01-30T00:21:45;23.40;;;21.47;;
63346;SDS011;49472;49.880;8.650;2024-01-30T00:24:10;29.30;;;25.00;;
63346;SDS011;49472;49.880;8.650;2024-01-30T00:26:35;25.13;;;22.93;;
63346;SDS011;49472;49.880;8.650;2024-01-30T00:29:00;23.43;;;21.47;;
63346;SDS011;49472;49.880;8.650;2024-01-30T00:31:25;22.33;;;20.43;;
63346;SDS011;49472;49.880;8.650;2024-01-30T00:33:51;22.97;;;20.97;;
63346;SDS011;49472;49.880;8.650;2024-01-30T00:36:16;24.43;;;21.70;;
63346;SDS011;49472;49.880;8.650;2024-01-30T00:38:41;23.23;;;21.07;;
63346;SDS011;49472;49.880;8.650;2024-01-30T00:41:07;25.10;;;22.60;;
63346;SDS011;49472;49.880;8.650;2024-01-30T00:43:32;23.70;;;21.50;;
63346;SDS011;49472;49.880;8.650;2024-01-30T00:45:58;23.47;;;21.27;;
63346;SDS011;49472;49.880;8.650;2024-01-30T00:48:23;23.73;;;21.40;;
63346;SDS011;49472;49.880;8.650;2024-01-30T00:50:48;24.67;;;21.83;;
63346;SDS011;49472;49.880;8.650;2024-01-30T00:53:13;23.90;;;21.60;;
63346;SDS011;49472;49.880;8.650;2024-01-30T00:55:39;23.43;;;21.00;;
63346;SDS011;49472;49.880;8.650;2024-01-30T00:58:04;23.50;;;21.20;;
63346;SDS011;49472;49.880;8.650;2024-01-30T01:00:29;22.20;;;20.40;;
63346;SDS011;49472;49.880;8.650;2024-01-30T01:02:58;23.33;;;21.30;;
63346;SDS011;49472;49.880;8.650;2024-01-30T01:05:23;34.23;;;22.77;;
63346;SDS011;49472;49.880;8.650;2024-01-30T01:07:48;23.77;;;21.87;;
63346;SDS011;49472;49.880;8.650;2024-01-30T01:10:14;23.43;;;20.93;;
63346;SDS011;49472;49.880;8.650;2024-01-30T01:12:39;22.80;;;20.53;;
63346;SDS011;49472;49.880;8.650;2024-01-30T01:15:05;24.43;;;21.63;;
63346;SDS011;49472;49.880;8.650;2024-01-30T01:17:30;24.50;;;22.10;;
63346;SDS011;49472;49.880;8.650;2024-01-30T01:19:56;23.60;;;21.60;;
63346;SDS011;49472;49.880;8.650;2024-01-30T01:22:22;24.70;;;22.30;;
63346;SDS011;49472;49.880;8.650;2024-01-30T01:24:47;24.10;;;21.80;;
63346;SDS011;49472;49.880;8.650;2024-01-30T01:27:12;23.80;;;21.50;;
63346;SDS011;49472;49.880;8.650;2024-01-30T01:29:38;24.17;;;21.83;;
63346;SDS011;49472;49.880;8.650;2024-01-30T01:32:03;24.60;;;22.40;;
63346;SDS011;49472;49.880;8.650;2024-01-30T01:34:28;23.90;;;21.60;;
63346;SDS011;49472;49.880;8.650;2024-01-30T01:36:53;24.03;;;21.80;;
63346;SDS011;49472;49.880;8.650;2024-01-30T01:39:20;23.17;;;21.00;;
63346;SDS011;49472;49.880;8.650;2024-01-30T01:41:45;24.57;;;22.27;;
63346;SDS011;49472;49.880;8.650;2024-01-30T01:44:10;24.27;;;21.97;;
63346;SDS011;49472;49.880;8.650;2024-01-30T01:46:35;24.73;;;22.37;;
63346;SDS011;49472;49.880;8.650;2024-01-30T01:49:02;24.73;;;22.53;;
63346;SDS011;49472;49.880;8.650;2024-01-30T01:51:29;27.63;;;22.50;;
63346;SDS011;49472;49.880;8.650;2024-01-30T01:53:55;25.17;;;22.80;;
63346;SDS011;49472;49.880;8.650;2024-01-30T01:56:21;25.40;;;22.10;;
63346;SDS011;49472;49.880;8.650;2024-01-30T01:58:47;25.07;;;22.37;;
63346;SDS011;49472;49.880;8.650;2024-01-30T02:01:12;22.93;;;20.83;;
63346;SDS011;49472;49.880;8.650;2024-01-30T02:03:38;24.43;;;22.20;;
63346;SDS011;49472;49.880;8.650;2024-01-30T02:06:04;25.07;;;22.67;;
63346;SDS011;49472;49.880;8.650;2024-01-30T02:08:29;25.57;;;22.80;;
63346;SDS011;49472;49.880;8.650;2024-01-30T02:10:54;27.03;;;22.57;;
63346;SDS011;49472;49.880;8.650;2024-01-30T02:13:20;25.40;;;23.23;;
63346;SDS011;49472;49.880;8.650;2024-01-30T02:15:48;23.87;;;21.77;;
63346;SDS011;49472;49.880;8.650;2024-01-30T02:18:14;23.13;;;21.00;;
63346;SDS011;49472;49.880;8.650;2024-01-30T02:20:39;24.03;;;21.63;;
63346;SDS011;49472;49.880;8.650;2024-01-30T02:23:04;24.33;;;21.70;;
63346;SDS011;49472;49.880;8.650;2024-01-30T02:25:33;24.83;;;22.50;;
63346;SDS011;49472;49.880;8.650;2024-01-30T02:27:58;26.37;;;21.90;;
63346;SDS011;49472;49.880;8.650;2024-01-30T02:30:23;25.37;;;22.67;;
63346;SDS011;49472;49.880;8.650;2024-01-30T02:32:49;27.20;;;24.40;;
63346;SDS011;49472;49.880;8.650;2024-01-30T02:35:14;25.40;;;23.00;;
63346;SDS011;49472;49.880;8.650;2024-01-30T02:37:39;24.80;;;22.40;;
63346;SDS011;49472;49.880;8.650;2024-01-30T02:40:04;24.80;;;22.40;;
63346;SDS011;49472;49.880;8.650;2024-01-30T02:42:30;23.83;;;21.70;;
63346;SDS011;49472;49.880;8.650;2024-01-30T02:44:55;24.13;;;21.87;;
63346;SDS011;49472;49.880;8.650;2024-01-30T02:47:20;25.57;;;22.90;;
63346;SDS011;49472;49.880;8.650;2024-01-30T02:49:45;24.87;;;22.37;;
63346;SDS011;49472;49.880;8.650;2024-01-30T02:52:10;23.77;;;21.33;;
63346;SDS011;49472;49.880;8.650;2024-01-30T02:54:36;25.60;;;22.97;;
63346;SDS011;49472;49.880;8.650;2024-01-30T02:57:01;24.67;;;22.17;;
63346;SDS011;49472;49.880;8.650;2024-01-30T02:59:26;28.73;;;25.23;;
63346;SDS011;49472;49.880;8.650;2024-01-30T03:01:51;28.27;;;25.27;;
63346;SDS011;49472;49.880;8.650;2024-01-30T03:04:16;35.10;;;26.27;;
63346;SDS011;49472;49.880;8.650;2024-01-30T03:06:46;28.53;;;25.60;;
63346;SDS011;49472;49.880;8.650;2024-01-30T03:09:12;28.33;;;25.43;;
63346;SDS011;49472;49.880;8.650;2024-01-30T03:11:37;27.30;;;24.70;;
63346;SDS011;49472;49.880;8.650;2024-01-30T03:14:02;31.10;;;25.33;;
63346;SDS011;49472;49.880;8.650;2024-01-30T03:16:29;30.00;;;25.27;;
63346;SDS011;49472;49.880;8.650;2024-01-30T03:18:54;26.60;;;23.77;;
63346;SDS011;49472;49.880;8.650;2024-01-30T03:21:19;29.70;;;26.30;;
63346;SDS011;49472;49.880;8.650;2024-01-30T03:23:44;25.93;;;23.43;;
63346;SDS011;49472;49.880;8.650;2024-01-30T03:26:10;27.33;;;24.30;;
63346;SDS011;49472;49.880;8.650;2024-01-30T03:28:36;26.73;;;23.93;;
63346;SDS011;49472;49.880;8.650;2024-01-30T03:31:01;26.77;;;24.10;;
63346;SDS011;49472;49.880;8.650;2024-01-30T03:33:26;25.93;;;23.47;;
63346;SDS011;49472;49.880;8.650;2024-01-30T03:35:52;24.37;;;22.13;;
63346;SDS011;49472;49.880;8.650;2024-01-30T03:38:17;27.40;;;23.50;;
63346;SDS011;49472;49.880;8.650;2024-01-30T03:40:42;28.23;;;25.23;;
63346;SDS011;49472;49.880;8.650;2024-01-30T03:43:07;26.80;;;23.90;;
63346;SDS011;49472;49.880;8.650;2024-01-30T03:45:33;25.57;;;23.20;;
63346;SDS011;49472;49.880;8.650;2024-01-30T03:47:58;29.20;;;25.60;;
63346;SDS011;49472;49.880;8.650;2024-01-30T03:50:23;25.20;;;22.90;;
63346;SDS011;49472;49.880;8.650;2024-01-30T03:52:48;25.77;;;23.37;;
63346;SDS011;49472;49.880;8.650;2024-01-30T03:55:14;29.47;;;22.80;;
63346;SDS011;49472;49.880;8.650;2024-01-30T03:57:39;25.60;;;23.10;;
63346;SDS011;49472;49.880;8.650;2024-01-30T04:00:04;26.07;;;23.37;;
63346;SDS011;49472;49.880;8.650;2024-01-30T04:02:30;45.20;;;31.50;;
63346;SDS011;49472;49.880;8.650;2024-01-30T04:04:55;34.13;;;27.60;;
63346;SDS011;49472;49.880;8.650;2024-01-30T04:07:20;27.63;;;23.77;;
63346;SDS011;49472;49.880;8.650;2024-01-30T04:09:45;26.90;;;24.20;;
63346;SDS011;49472;49.880;8.650;2024-01-30T04:12:11;28.53;;;23.40;;
63346;SDS011;49472;49.880;8.650;2024-01-30T04:14:37;25.83;;;23.17;;
63346;SDS011;49472;49.880;8.650;2024-01-30T04:17:03;25.00;;;22.20;;
63346;SDS011;49472;49.880;8.650;2024-01-30T04:19:28;24.77;;;22.47;;
63346;SDS011;49472;49.880;8.650;2024-01-30T04:21:53;25.27;;;22.57;;
63346;SDS011;49472;49.880;8.650;2024-01-30T04:24:18;25.17;;;22.47;;
63346;SDS011;49472;49.880;8.650;2024-01-30T04:26:43;24.43;;;21.83;;
63346;SDS011;49472;49.880;8.650;2024-01-30T04:29:08;24.13;;;21.90;;
63346;SDS011;49472;49.880;8.650;2024-01-30T04:31:35;24.37;;;22.10;;
63346;SDS011;49472;49.880;8.650;2024-01-30T04:34:01;25.70;;;23.10;;
63346;SDS011;49472;49.880;8.650;2024-01-30T04:36:26;24.47;;;22.27;;
63346;SDS011;49472;49.880;8.650;2024-01-30T04:38:51;24.00;;;21.70;;
63346;SDS011;49472;49.880;8.650;2024-01-30T04:41:16;25.83;;;21.73;;
63346;SDS011;49472;49.880;8.650;2024-01-30T04:43:41;23.37;;;21.10;;
63346;SDS011;49472;49.880;8.650;2024-01-30T04:46:06;27.70;;;24.90;;
63346;SDS011;49472;49.880;8.650;2024-01-30T04:48:32;24.00;;;21.60;;
63346;SDS011;49472;49.880;8.650;2024-01-30T04:50:57;25.33;;;22.17;;
63346;SDS011;49472;49.880;8.650;2024-01-30T04:53:22;25.43;;;22.80;;
63346;SDS011;49472;49.880;8.650;2024-01-30T04:55:47;24.63;;;22.23;;
63346;SDS011;49472;49.880;8.650;2024-01-30T04:58:13;26.30;;;23.23;;
63346;SDS011;49472;49.880;8.650;2024-01-30T05:00:38;25.10;;;22.70;;
63346;SDS011;49472;49.880;8.650;2024-01-30T05:03:03;25.87;;;23.20;;
63346;SDS011;49472;49.880;8.650;2024-01-30T05:05:28;24.73;;;22.03;;
63346;SDS011;49472;49.880;8.650;2024-01-30T05:07:53;26.57;;;22.90;;
63346;SDS011;49472;49.880;8.650;2024-01-30T05:10:19;27.23;;;23.93;;
63346;SDS011;49472;49.880;8.650;2024-01-30T05:12:44;25.87;;;23.23;;
63346;SDS011;49472;49.880;8.650;2024-01-30T05:15:09;28.37;;;23.67;;
63346;SDS011;49472;49.880;8.650;2024-01-30T05:17:34;26.27;;;23.60;;
63346;SDS011;49472;49.880;8.650;2024-01-30T05:19:59;25.67;;;22.70;;
63346;SDS011;49472;49.880;8.650;2024-01-30T05:22:25;25.17;;;22.80;;
63346;SDS011;49472;49.880;8.650;2024-01-30T05:24:50;25.30;;;22.90;;
63346;SDS011;49472;49.880;8.650;2024-01-30T05:27:15;27.80;;;24.57;;
63346;SDS011;49472;49.880;8.650;2024-01-30T05:29:40;24.33;;;22.10;;
63346;SDS011;49472;49.880;8.650;2024-01-30T05:32:08;31.63;;;25.10;;
63346;SDS011;49472;49.880;8.650;2024-01-30T05:34:35;29.57;;;25.37;;
63346;SDS011;49472;49.880;8.650;2024-01-30T05:37:00;30.80;;;26.00;;
63346;SDS011;49472;49.880;8.650;2024-01-30T05:39:26;36.20;;;28.03;;
63346;SDS011;49472;49.880;8.650;2024-01-30T05:41:51;34.40;;;28.43;;
63346;SDS011;49472;49.880;8.650;2024-01-30T05:44:16;30.13;;;26.93;;
63346;SDS011;49472;49.880;8.650;2024-01-30T05:46:41;43.07;;;28.20;;
63346;SDS011;49472;49.880;8.650;2024-01-30T05:49:09;34.83;;;26.30;;
63346;SDS011;49472;49.880;8.650;2024-01-30T05:51:34;31.90;;;25.73;;
63346;SDS011;49472;49.880;8.650;2024-01-30T05:53:59;31.13;;;27.13;;
63346;SDS011;49472;49.880;8.650;2024-01-30T05:56:24;32.30;;;26.73;;
63346;SDS011;49472;49.880;8.650;2024-01-30T05:58:50;30.03;;;25.70;;
63346;SDS011;49472;49.880;8.650;2024-01-30T06:01:16;31.07;;;25.80;;
63346;SDS011;49472;49.880;8.650;2024-01-30T06:03:41;32.40;;;25.47;;
63346;SDS011;49472;49.880;8.650;2024-01-30T06:06:08;27.60;;;24.60;;
63346;SDS011;49472;49.880;8.650;2024-01-30T06:08:33;29.03;;;25.00;;
63346;SDS011;49472;49.880;8.650;2024-01-30T06:10:59;28.30;;;25.30;;
63346;SDS011;49472;49.880;8.650;2024-01-30T06:13:24;32.10;;;27.10;;
63346;SDS011;49472;49.880;8.650;2024-01-30T06:15:49;29.40;;;25.40;;
63346;SDS011;49472;49.880;8.650;2024-01-30T06:18:15;27.20;;;24.43;;
63346;SDS011;49472;49.880;8.650;2024-01-30T06:20:40;29.93;;;25.20;;
63346;SDS011;49472;49.880;8.650;2024-01-30T06:23:05;27.47;;;24.60;;
63346;SDS011;49472;49.880;8.650;2024-01-30T06:25:30;26.63;;;23.10;;
63346;SDS011;49472;49.880;8.650;2024-01-30T06:27:55;29.57;;;24.77;;
63346;SDS011;49472;49.880;8.650;2024-01-30T06:30:20;27.97;;;24.87;;
63346;SDS011;49472;49.880;8.650;2024-01-30T06:32:46;27.40;;;24.60;;
63346;SDS011;49472;49.880;8.650;2024-01-30T06:35:11;35.03;;;24.60;;
63346;SDS011;49472;49.880;8.650;2024-01-30T06:37:36;27.03;;;24.30;;
63346;SDS011;49472;49.880;8.650;2024-01-30T06:40:02;26.80;;;24.20;;
63346;SDS011;49472;49.880;8.650;2024-01-30T06:42:29;29.80;;;25.37;;
63346;SDS011;49472;49.880;8.650;2024-01-30T06:44:54;25.67;;;23.00;;
63346;SDS011;49472;49.880;8.650;2024-01-30T06:47:19;27.70;;;24.80;;
63346;SDS011;49472;49.880;8.650;2024-01-30T06:49:45;27.93;;;25.10;;
63346;SDS011;49472;49.880;8.650;2024-01-30T06:52:10;27.43;;;24.70;;
63346;SDS011;49472;49.880;8.650;2024-01-30T06:54:37;26.57;;;24.10;;
63346;SDS011;49472;49.880;8.650;2024-01-30T06:57:02;30.37;;;25.87;;
63346;SDS011;49472;49.880;8.650;2024-01-30T06:59:28;27.00;;;24.20;;
63346;SDS011;49472;49.880;8.650;2024-01-30T07:01:53;28.47;;;24.10;;
63346;SDS011;49472;49.880;8.650;2024-01-30T07:04:18;26.10;;;23.43;;
63346;SDS011;49472;49.880;8.650;2024-01-30T07:06:43;27.57;;;24.27;;
63346;SDS011;49472;49.880;8.650;2024-01-30T07:09:09;29.77;;;26.30;;
63346;SDS011;49472;49.880;8.650;2024-01-30T07:11:34;28.70;;;24.73;;
63346;SDS011;49472;49.880;8.650;2024-01-30T07:13:59;28.60;;;25.70;;
63346;SDS011;49472;49.880;8.650;2024-01-30T07:16:24;29.93;;;24.70;;
63346;SDS011;49472;49.880;8.650;2024-01-30T07:18:50;29.27;;;26.17;;
63346;SDS011;49472;49.880;8.650;2024-01-30T07:21:15;30.87;;;27.53;;
63346;SDS011;49472;49.880;8.650;2024-01-30T07:23:40;29.47;;;24.17;;
63346;SDS011;49472;49.880;8.650;2024-01-30T07:26:07;30.63;;;25.07;;
63346;SDS011;49472;49.880;8.650;2024-01-30T07:28:32;27.23;;;24.60;;
63346;SDS011;49472;49.880;8.650;2024-01-30T07:30:58;30.20;;;27.20;;
63346;SDS011;49472;49.880;8.650;2024-01-30T07:33:23;33.40;;;26.07;;
63346;SDS011;49472;49.880;8.650;2024-01-30T07:35:48;33.60;;;28.30;;
63346;SDS011;49472;49.880;8.650;2024-01-30T07:38:13;32.50;;;27.07;;
63346;SDS011;49472;49.880;8.650;2024-01-30T07:40:39;28.20;;;25.50;;
63346;SDS011;49472;49.880;8.650;2024-01-30T07:43:04;29.70;;;26.53;;
63346;SDS011;49472;49.880;8.650;2024-01-30T07:45:29;32.43;;;24.90;;
63346;SDS011;49472;49.880;8.650;2024-01-30T07:47:58;34.63;;;27.83;;
63346;SDS011;49472;49.880;8.650;2024-01-30T07:50:24;29.87;;;27.07;;
63346;SDS011;49472;49.880;8.650;2024-01-30T07:52:50;29.27;;;25.90;;
63346;SDS011;49472;49.880;8.650;2024-01-30T07:55:19;37.00;;;25.47;;
63346;SDS011;49472;49.880;8.650;2024-01-30T07:57:45;32.43;;;26.40;;
63346;SDS011;49472;49.880;8.650;2024-01-30T08:00:11;30.60;;;26.57;;
63346;SDS011;49472;49.880;8.650;2024-01-30T08:02:36;34.47;;;27.50;;
63346;SDS011;49472;49.880;8.650;2024-01-30T08:05:01;32.17;;;27.93;;
63346;SDS011;49472;49.880;8.650;2024-01-30T08:07:26;34.10;;;28.67;;
63346;SDS011;49472;49.880;8.650;2024-01-30T08:09:54;33.40;;;27.47;;
63346;SDS011;49472;49.880;8.650;2024-01-30T08:12:19;34.28;;;30.10;;
63346;SDS011;49472;49.880;8.650;2024-01-30T08:14:45;34.30;;;27.50;;
63346;SDS011;49472;49.880;8.650;2024-01-30T08:17:10;32.37;;;28.03;;
63346;SDS011;49472;49.880;8.650;2024-01-30T08:19:35;32.53;;;29.07;;
63346;SDS011;49472;49.880;8.650;2024-01-30T08:22:00;36.33;;;28.40;;
63346;SDS011;49472;49.880;8.650;2024-01-30T08:24:25;34.73;;;28.37;;
63346;SDS011;49472;49.880;8.650;2024-01-30T08:26:50;32.07;;;28.43;;
63346;SDS011;49472;49.880;8.650;2024-01-30T08:29:16;33.53;;;29.90;;
63346;SDS011;49472;49.880;8.650;2024-01-30T08:31:42;33.40;;;29.33;;
63346;SDS011;49472;49.880;8.650;2024-01-30T08:34:07;34.77;;;30.70;;
63346;SDS011;49472;49.880;8.650;2024-01-30T08:36:32;32.13;;;28.60;;
63346;SDS011;49472;49.880;8.650;2024-01-30T08:38:57;34.23;;;29.13;;
63346;SDS011;49472;49.880;8.650;2024-01-30T08:41:23;33.80;;;30.20;;
63346;SDS011;49472;49.880;8.650;2024-01-30T08:43:48;33.97;;;30.27;;
63346;SDS011;49472;49.880;8.650;2024-01-30T08:46:17;31.00;;;27.20;;
63346;SDS011;49472;49.880;8.650;2024-01-30T08:48:42;33.27;;;29.77;;
63346;SDS011;49472;49.880;8.650;2024-01-30T08:51:07;32.10;;;28.40;;
63346;SDS011;49472;49.880;8.650;2024-01-30T08:53:33;34.40;;;30.37;;
63346;SDS011;49472;49.880;8.650;2024-01-30T08:55:58;34.47;;;29.90;;
63346;SDS011;49472;49.880;8.650;2024-01-30T08:58:24;42.37;;;30.53;;
63346;SDS011;49472;49.880;8.650;2024-01-30T09:00:49;41.20;;;29.17;;
63346;SDS011;49472;49.880;8.650;2024-01-30T09:03:16;32.67;;;29.17;;
63346;SDS011;49472;49.880;8.650;2024-01-30T09:05:42;32.93;;;29.40;;
63346;SDS011;49472;49.880;8.650;2024-01-30T09:08:07;49.53;;;28.37;;
63346;SDS011;49472;49.880;8.650;2024-01-30T09:10:32;31.13;;;27.83;;
63346;SDS011;49472;49.880;8.650;2024-01-30T09:12:57;38.30;;;31.10;;
63346;SDS011;49472;49.880;8.650;2024-01-30T09:15:22;30.30;;;27.13;;
63346;SDS011;49472;49.880;8.650;2024-01-30T09:17:48;31.53;;;28.27;;
63346;SDS011;49472;49.880;8.650;2024-01-30T09:20:13;36.87;;;28.30;;
63346;SDS011;49472;49.880;8.650;2024-01-30T09:22:38;33.57;;;29.13;;
63346;SDS011;49472;49.880;8.650;2024-01-30T09:25:03;33.07;;;29.20;;
63346;SDS011;49472;49.880;8.650;2024-01-30T09:27:29;37.17;;;29.77;;
63346;SDS011;49472;49.880;8.650;2024-01-30T09:29:54;34.47;;;30.80;;
63346;SDS011;49472;49.880;8.650;2024-01-30T09:32:19;32.17;;;28.70;;
63346;SDS011;49472;49.880;8.650;2024-01-30T09:34:44;37.90;;;30.87;;
63346;SDS011;49472;49.880;8.650;2024-01-30T09:37:09;32.40;;;29.10;;
63346;SDS011;49472;49.880;8.650;2024-01-30T09:39:35;31.93;;;28.43;;
63346;SDS011;49472;49.880;8.650;2024-01-30T09:44:29;37.83;;;29.27;;
63346;SDS011;49472;49.880;8.650;2024-01-30T09:46:54;33.50;;;29.57;;
63346;SDS011;49472;49.880;8.650;2024-01-30T09:49:20;37.73;;;30.20;;
63346;SDS011;49472;49.880;8.650;2024-01-30T09:51:45;38.10;;;28.30;;
63346;SDS011;49472;49.880;8.650;2024-01-30T09:54:11;39.93;;;29.67;;
63346;SDS011;49472;49.880;8.650;2024-01-30T09:56:37;31.37;;;27.97;;
63346;SDS011;49472;49.880;8.650;2024-01-30T09:59:03;36.03;;;28.97;;
63346;SDS011;49472;49.880;8.650;2024-01-30T10:01:28;35.53;;;29.57;;
63346;SDS011;49472;49.880;8.650;2024-01-30T10:03:53;31.70;;;28.47;;
63346;SDS011;49472;49.880;8.650;2024-01-30T10:06:19;34.70;;;29.47;;
63346;SDS011;49472;49.880;8.650;2024-01-30T10:08:45;36.97;;;27.87;;
63346;SDS011;49472;49.880;8.650;2024-01-30T10:11:11;39.60;;;29.33;;
63346;SDS011;49472;49.880;8.650;2024-01-30T10:13:36;40.03;;;29.27;;
63346;SDS011;49472;49.880;8.650;2024-01-30T10:16:01;32.77;;;27.03;;
63346;SDS011;49472;49.880;8.650;2024-01-30T10:18:28;33.20;;;29.37;;
63346;SDS011;49472;49.880;8.650;2024-01-30T10:20:53;33.57;;;28.93;;
63346;SDS011;49472;49.880;8.650;2024-01-30T10:23:18;33.00;;;29.50;;
63346;SDS011;49472;49.880;8.650;2024-01-30T10:25:44;33.70;;;30.10;;
63346;SDS011;49472;49.880;8.650;2024-01-30T10:28:09;33.10;;;29.53;;
63346;SDS011;49472;49.880;8.650;2024-01-30T10:30:35;38.33;;;29.97;;
63346;SDS011;49472;49.880;8.650;2024-01-30T10:33:00;33.07;;;29.47;;
63346;SDS011;49472;49.880;8.650;2024-01-30T10:35:25;31.07;;;28.00;;
63346;SDS011;49472;49.880;8.650;2024-01-30T10:37:50;31.93;;;27.17;;
63346;SDS011;49472;49.880;8.650;2024-01-30T10:40:16;32.90;;;29.00;;
63346;SDS011;49472;49.880;8.650;2024-01-30T10:42:43;32.13;;;28.87;;
63346;SDS011;49472;49.880;8.650;2024-01-30T10:45:09;31.37;;;28.23;;
63346;SDS011;49472;49.880;8.650;2024-01-30T10:47:37;35.60;;;28.70;;
63346;SDS011;49472;49.880;8.650;2024-01-30T10:50:04;32.10;;;29.00;;
63346;SDS011;49472;49.880;8.650;2024-01-30T10:52:29;34.80;;;29.60;;
63346;SDS011;49472;49.880;8.650;2024-01-30T10:54:56;32.27;;;29.17;;
63346;SDS011;49472;49.880;8.650;2024-01-30T10:57:25;32.53;;;28.00;;
63346;SDS011;49472;49.880;8.650;2024-01-30T10:59:51;35.33;;;28.60;;
63346;SDS011;49472;49.880;8.650;2024-01-30T11:02:17;31.23;;;27.00;;
63346;SDS011;49472;49.880;8.650;2024-01-30T11:04:43;32.27;;;28.83;;
63346;SDS011;49472;49.880;8.650;2024-01-30T11:09:41;32.23;;;28.20;;
63346;SDS011;49472;49.880;8.650;2024-01-30T11:12:11;35.07;;;29.00;;
63346;SDS011;49472;49.880;8.650;2024-01-30T11:14:37;32.90;;;27.70;;
63346;SDS011;49472;49.880;8.650;2024-01-30T11:17:05;34.80;;;28.07;;
63346;SDS011;49472;49.880;8.650;2024-01-30T11:19:30;35.63;;;28.43;;
63346;SDS011;49472;49.880;8.650;2024-01-30T11:21:58;31.87;;;28.47;;
63346;SDS011;49472;49.880;8.650;2024-01-30T11:24:24;31.83;;;28.53;;
63346;SDS011;49472;49.880;8.650;2024-01-30T11:26:55;31.03;;;27.73;;
63346;SDS011;49472;49.880;8.650;2024-01-30T11:29:20;35.90;;;30.43;;
63346;SDS011;49472;49.880;8.650;2024-01-30T11:31:52;32.00;;;28.60;;
63346;SDS011;49472;49.880;8.650;2024-01-30T11:34:18;32.80;;;29.43;;
63346;SDS011;49472;49.880;8.650;2024-01-30T11:36:44;32.67;;;29.47;;
63346;SDS011;49472;49.880;8.650;2024-01-30T11:39:10;44.33;;;29.90;;
63346;SDS011;49472;49.880;8.650;2024-01-30T11:41:36;32.67;;;29.10;;
63346;SDS011;49472;49.880;8.650;2024-01-30T11:44:03;33.23;;;29.77;;
63346;SDS011;49472;49.880;8.650;2024-01-30T11:46:31;30.83;;;27.37;;
63346;SDS011;49472;49.880;8.650;2024-01-30T11:48:56;30.07;;;26.70;;
63346;SDS011;49472;49.880;8.650;2024-01-30T11:51:21;35.03;;;27.70;;
63346;SDS011;49472;49.880;8.650;2024-01-30T11:53:49;32.33;;;29.03;;
63346;SDS011;49472;49.880;8.650;2024-01-30T11:56:14;30.00;;;27.00;;
63346;SDS011;49472;49.880;8.650;2024-01-30T11:58:42;35.87;;;29.80;;
63346;SDS011;49472;49.880;8.650;2024-01-30T12:01:07;32.20;;;28.83;;
63346;SDS011;49472;49.880;8.650;2024-01-30T12:03:32;30.17;;;27.23;;
63346;SDS011;49472;49.880;8.650;2024-01-30T12:05:58;28.77;;;25.67;;
63346;SDS011;49472;49.880;8.650;2024-01-30T12:08:23;28.40;;;25.53;;
63346;SDS011;49472;49.880;8.650;2024-01-30T12:10:55;34.90;;;26.13;;
63346;SDS011;49472;49.880;8.650;2024-01-30T12:13:20;28.83;;;25.43;;
63346;SDS011;49472;49.880;8.650;2024-01-30T12:15:45;33.30;;;25.67;;
63346;SDS011;49472;49.880;8.650;2024-01-30T12:18:10;29.17;;;26.33;;
63346;SDS011;49472;49.880;8.650;2024-01-30T12:20:36;31.70;;;24.80;;
63346;SDS011;49472;49.880;8.650;2024-01-30T12:23:01;28.00;;;25.20;;
63346;SDS011;49472;49.880;8.650;2024-01-30T12:25:26;29.93;;;26.90;;
63346;SDS011;49472;49.880;8.650;2024-01-30T12:27:52;28.50;;;25.67;;
63346;SDS011;49472;49.880;8.650;2024-01-30T12:30:18;28.40;;;24.17;;
63346;SDS011;49472;49.880;8.650;2024-01-30T12:32:44;28.30;;;25.53;;
63346;SDS011;49472;49.880;8.650;2024-01-30T12:35:10;33.43;;;25.93;;
63346;SDS011;49472;49.880;8.650;2024-01-30T12:37:35;33.13;;;24.57;;
63346;SDS011;49472;49.880;8.650;2024-01-30T12:40:01;27.43;;;24.70;;
63346;SDS011;49472;49.880;8.650;2024-01-30T12:42:26;29.50;;;24.93;;
63346;SDS011;49472;49.880;8.650;2024-01-30T12:44:52;28.33;;;24.23;;
63346;SDS011;49472;49.880;8.650;2024-01-30T12:47:17;27.27;;;24.37;;
63346;SDS011;49472;49.880;8.650;2024-01-30T12:49:43;26.40;;;23.87;;
63346;SDS011;49472;49.880;8.650;2024-01-30T12:52:09;27.53;;;24.53;;
63346;SDS011;49472;49.880;8.650;2024-01-30T12:54:34;29.27;;;26.13;;
63346;SDS011;49472;49.880;8.650;2024-01-30T12:56:59;26.80;;;24.03;;
63346;SDS011;49472;49.880;8.650;2024-01-30T12:59:25;28.00;;;25.20;;
63346;SDS011;49472;49.880;8.650;2024-01-30T13:01:50;27.37;;;24.60;;
63346;SDS011;49472;49.880;8.650;2024-01-30T13:04:15;27.13;;;24.20;;
63346;SDS011;49472;49.880;8.650;2024-01-30T13:06:41;27.47;;;24.73;;
63346;SDS011;49472;49.880;8.650;2024-01-30T13:09:06;27.87;;;25.23;;
63346;SDS011;49472;49.880;8.650;2024-01-30T13:11:32;31.73;;;25.40;;
63346;SDS011;49472;49.880;8.650;2024-01-30T13:13:57;27.43;;;24.70;;
63346;SDS011;49472;49.880;8.650;2024-01-30T13:16:22;26.10;;;23.67;;
63346;SDS011;49472;49.880;8.650;2024-01-30T13:18:49;27.57;;;24.73;;
63346;SDS011;49472;49.880;8.650;2024-01-30T13:21:15;37.43;;;25.10;;
63346;SDS011;49472;49.880;8.650;2024-01-30T13:23:40;27.93;;;24.70;;
63346;SDS011;49472;49.880;8.650;2024-01-30T13:26:05;27.40;;;24.80;;
63346;SDS011;49472;49.880;8.650;2024-01-30T13:28:32;28.20;;;25.40;;
63346;SDS011;49472;49.880;8.650;2024-01-30T13:30:57;29.67;;;24.83;;
63346;SDS011;49472;49.880;8.650;2024-01-30T13:33:23;29.60;;;26.57;;
63346;SDS011;49472;49.880;8.650;2024-01-30T13:35:48;26.53;;;24.13;;
63346;SDS011;49472;49.880;8.650;2024-01-30T13:38:13;28.40;;;25.57;;
63346;SDS011;49472;49.880;8.650;2024-01-30T13:40:40;27.73;;;25.00;;
63346;SDS011;49472;49.880;8.650;2024-01-30T13:43:05;27.67;;;24.87;;
63346;SDS011;49472;49.880;8.650;2024-01-30T13:45:30;27.63;;;24.87;;
63346;SDS011;49472;49.880;8.650;2024-01-30T13:47:58;28.70;;;25.87;;
63346;SDS011;49472;49.880;8.650;2024-01-30T13:50:24;27.53;;;24.50;;
63346;SDS011;49472;49.880;8.650;2024-01-30T13:52:49;28.60;;;25.97;;
63346;SDS011;49472;49.880;8.650;2024-01-30T13:55:14;28.47;;;25.67;;
63346;SDS011;49472;49.880;8.650;2024-01-30T13:57:39;26.93;;;24.43;;
63346;SDS011;49472;49.880;8.650;2024-01-30T14:00:05;27.63;;;25.23;;
63346;SDS011;49472;49.880;8.650;2024-01-30T14:02:33;28.10;;;25.30;;
63346;SDS011;49472;49.880;8.650;2024-01-30T14:04:59;28.83;;;26.10;;
63346;SDS011;49472;49.880;8.650;2024-01-30T14:07:24;27.97;;;25.27;;
63346;SDS011;49472;49.880;8.650;2024-01-30T14:09:49;30.50;;;25.37;;
63346;SDS011;49472;49.880;8.650;2024-01-30T14:12:15;26.47;;;23.97;;
63346;SDS011;49472;49.880;8.650;2024-01-30T14:14:40;28.60;;;25.80;;
63346;SDS011;49472;49.880;8.650;2024-01-30T14:17:05;29.97;;;26.73;;